Yosemite National Park, CA

11:55 AM PDT on September 21, 2014 (GMT -0700)
Loggers Retreat | Change Station
CLOSE
Current Station
Personal Weather Station
Location: Fish Camp, CA
Elevation: 4960 ft
Nearby Weather Stations

Elev 4960 ft 37.45 °N, 119.65 °W | Updated 25 minutes ago

Partly Cloudy
Partly Cloudy
74.6 °F
Feels Like 77 °F
N
2.0
Wind Variable Wind from SE
Gusts 6.0 mph

Today
High -- | Low -- °F
--% Chance of Precip.
Yesterday
High -- | Low -- °F
Precip. -- in
6:45 AM 6:56 PM
Waning Crescent, 6% visible
Pressure 30.00 in
Visibility 10.0 miles
Clouds Clear
Heat Index 77 °F
Dew Point 47 °F
Humidity 38%
Rainfall 0.00 in
Snow Depth 0 in , 0 in , 0 in
UV 4.1 out of 12
Pollen 5.80 out of 12
Air Quality Not available.
Flu Activity Not available.
METAR KO22 211835Z AUTO 18005KT 10SM CLR 25/09 A3000 RMK AO1

More Conditions Fewer Conditions

Pressure 30.00 in
Visibility 10.0 miles
Clouds Clear
Heat Index 77 °F
Dew Point 47 °F
Humidity 38%
Rainfall 0.00 in
Snow Depth 0 in , 0 in , 0 in
UV 4.1 out of 12
Pollen 5.80 out of 12
Air Quality Not available.
Flu Activity Not available.
METAR KO22 211835Z AUTO 18005KT 10SM CLR 25/09 A3000 RMK AO1

More Conditions Fewer Conditions

10-Day Weather Forecast

Almanac

Astronomy

Sep. 21, 2014 Rise Set
Actual Time 6:45 AM PDT 6:56 PM PDT
Civil Twilight 6:19 AM PDT 7:22 PM PDT
Nautical Twilight 5:48 AM PDT 7:53 PM PDT
Astronomical Twilight 5:17 AM PDT 8:24 PM PDT
Moon 4:25 AM PDT 5:33 PM PDT
Length of Visible Light 13h 03m
Length of Day
12h 11m
Tomorrow will be 2m 25s shorter.
Waning Crescent, 6% of the Moon is Illuminated
Today
Waning Crescent
Sep 24
New
Oct 1
First Quarter
Oct 8
Full
Oct 15
Last Quarter

Today's Extremes

State Highs State Lows

Community

WunderPhotos

Upload Photos

1,755,211 photos uploaded!

WunderBlogs® & News

Nearby

Snow Depth

Station Depth Elevation
Tahoe City Cross 0 in 6750 ft
Spratt Creek 0 in 6200 ft
Hagan's Meadow 0 in 8000 ft
Summit Meadow 0 in 9122 ft
Rubicon #2 0 in 7500 ft

Earthquake Activity

City Distance Mag. Time & Date
Inyokern, California 151 miles 3.1 5:33 PM PDT
2014-09-19
Gabbs, Nevada 116 miles 3.3 4:37 AM PDT
2014-09-19
Corcoran, California 116 miles 2.9 3:59 PM PDT
2014-09-18
Minimum magnitude displayed is 2.5.

Coastal Water Temperatures

Place Temperature
No Stations Reporting

Nearby Weather Stations